Time;durP1;ratioP1;P1;durP2;ratioP2;P2;SDS_P1;SDS_P2;PMS_P1;PMS_P2;Temp;Humidity;BMP_temperature;BMP_pressure;BME280_temperature;BME280_humidity;BME280_pressure;Samples;Min_cycle;Max_cycle;Signal;HPM_P1;HPM_P2
2023/07/21 00:02:06;;;;;;;5.22;2.22;;;14.60;99.90;;;;;;4991689;28;20098;-57
2023/07/21 00:04:32;;;;;;;4.60;2.47;;;14.50;99.90;;;;;;4982856;28;20478;-57
2023/07/21 00:06:57;;;;;;;4.20;2.38;;;14.50;99.90;;;;;;4994651;28;20056;-57
2023/07/21 00:09:23;;;;;;;6.20;2.42;;;14.50;99.90;;;;;;5003445;28;20133;-59
2023/07/21 00:11:48;;;;;;;3.20;2.20;;;14.60;99.90;;;;;;5003658;28;20053;-59
2023/07/21 00:14:14;;;;;;;5.30;2.30;;;14.50;99.90;;;;;;4999110;28;20041;-58
2023/07/21 00:16:40;;;;;;;3.40;2.38;;;14.60;99.90;;;;;;4992350;28;20500;-58
2023/07/21 00:19:06;;;;;;;5.13;2.20;;;14.60;99.90;;;;;;4983694;28;20039;-58
2023/07/21 00:21:34;;;;;;;6.88;2.35;;;14.50;99.90;;;;;;4983910;28;20121;-59
2023/07/21 00:24:01;;;;;;;5.80;3.40;;;14.50;99.90;;;;;;4996194;28;20085;-58
2023/07/21 00:26:26;;;;;;;8.63;4.20;;;14.40;99.90;;;;;;4994042;28;20042;-58
2023/07/21 00:28:52;;;;;;;5.18;3.00;;;14.30;99.90;;;;;;4983597;28;20053;-58
2023/07/21 00:31:18;;;;;;;6.18;3.38;;;14.30;99.90;;;;;;4981802;28;20089;-58
2023/07/21 00:33:44;;;;;;;5.10;3.22;;;14.20;99.90;;;;;;4983241;28;20066;-58
2023/07/21 00:36:12;;;;;;;5.70;3.30;;;14.30;99.90;;;;;;4983532;28;20085;-59
2023/07/21 00:38:40;;;;;;;6.53;3.50;;;14.30;99.90;;;;;;4983708;28;20038;-58
2023/07/21 00:41:06;;;;;;;5.55;3.35;;;14.30;99.90;;;;;;4983301;28;20054;-58
2023/07/21 00:43:32;;;;;;;5.25;3.30;;;14.30;99.90;;;;;;4983824;28;20054;-59
2023/07/21 00:45:58;;;;;;;5.28;3.13;;;14.20;99.90;;;;;;4983332;28;20035;-59
2023/07/21 00:48:24;;;;;;;5.88;3.50;;;14.20;99.90;;;;;;4983838;28;20050;-58
2023/07/21 00:50:52;;;;;;;5.35;3.38;;;14.30;99.90;;;;;;4982667;28;20054;-58
2023/07/21 00:53:19;;;;;;;5.28;3.08;;;14.30;99.90;;;;;;4983716;28;20046;-59
2023/07/21 00:55:47;;;;;;;5.47;2.85;;;14.30;99.90;;;;;;4983158;28;20046;-58
2023/07/21 00:58:17;;;;;;;4.55;3.10;;;14.30;99.90;;;;;;4983279;28;20046;-59
2023/07/21 01:00:43;;;;;;;6.15;2.85;;;14.20;99.90;;;;;;4982592;28;20334;-58
2023/07/21 01:03:11;;;;;;;5.03;3.13;;;14.30;99.90;;;;;;4982230;28;20146;-57
2023/07/21 01:05:41;;;;;;;4.80;3.00;;;14.20;99.90;;;;;;4985433;28;20053;-57
2023/07/21 01:08:08;;;;;;;4.43;2.58;;;14.20;99.90;;;;;;4987326;28;20038;-59
2023/07/21 01:10:36;;;;;;;4.13;2.67;;;14.20;99.90;;;;;;4986438;28;20095;-57
2023/07/21 01:13:02;;;;;;;5.90;2.97;;;14.10;99.90;;;;;;4985210;28;20054;-57
2023/07/21 01:15:30;;;;;;;4.93;2.90;;;14.10;99.90;;;;;;4991420;28;20645;-59
2023/07/21 01:17:56;;;;;;;5.00;2.95;;;14.00;99.90;;;;;;5005059;28;20042;-57
2023/07/21 01:20:24;;;;;;;7.45;3.35;;;14.00;99.90;;;;;;5004604;28;20042;-58
2023/07/21 01:23:00;;;;;;;5.10;3.55;;;13.90;99.90;;;;;;5003996;28;20069;-58
2023/07/21 01:25:28;;;;;;;4.10;3.13;;;14.10;99.90;;;;;;5005040;28;20069;-59
2023/07/21 01:27:55;;;;;;;7.38;3.58;;;13.90;99.90;;;;;;5006185;28;20025;-58
2023/07/21 01:30:22;;;;;;;5.55;3.35;;;13.90;99.90;;;;;;5005605;28;20132;-58
2023/07/21 01:32:51;;;;;;;5.80;3.50;;;13.80;99.90;;;;;;5005119;28;20042;-57
2023/07/21 01:35:18;;;;;;;5.22;3.60;;;13.80;99.90;;;;;;5005148;28;20041;-57
2023/07/21 01:37:46;;;;;;;6.55;4.07;;;13.70;99.90;;;;;;5005245;28;20070;-59
2023/07/21 01:40:15;;;;;;;5.90;3.90;;;13.80;99.90;;;;;;5003854;28;20056;-60
2023/07/21 01:42:44;;;;;;;6.57;3.90;;;13.70;99.90;;;;;;5005791;28;20041;-56
2023/07/21 01:45:11;;;;;;;5.47;3.80;;;13.70;99.90;;;;;;5004676;28;20038;-60
2023/07/21 01:47:37;;;;;;;7.68;3.33;;;13.70;99.90;;;;;;5004426;28;20042;-60
2023/07/21 01:50:09;;;;;;;5.80;3.72;;;13.80;99.90;;;;;;5004754;28;20545;-57
2023/07/21 01:52:37;;;;;;;4.40;3.53;;;13.80;99.90;;;;;;5005644;28;20038;-57
2023/07/21 01:55:10;;;;;;;6.72;3.58;;;13.80;99.90;;;;;;5004665;28;20042;-57
2023/07/21 01:57:38;;;;;;;6.63;3.78;;;13.80;99.90;;;;;;5005229;28;20041;-60
2023/07/21 02:00:09;;;;;;;5.50;3.35;;;13.70;99.90;;;;;;5004949;28;20117;-57
2023/07/21 02:02:34;;;;;;;4.22;3.17;;;13.70;99.90;;;;;;5003717;28;20112;-57
2023/07/21 02:05:01;;;;;;;5.85;3.25;;;13.70;99.90;;;;;;5003669;28;20046;-59
2023/07/21 02:07:27;;;;;;;5.47;3.00;;;13.70;99.90;;;;;;5004460;28;20093;-59
2023/07/21 02:09:53;;;;;;;4.03;2.97;;;13.70;99.90;;;;;;5004094;28;20042;-57
2023/07/21 02:12:19;;;;;;;5.97;3.70;;;13.60;99.90;;;;;;5004627;28;20056;-58
2023/07/21 02:14:45;;;;;;;4.63;3.38;;;13.50;99.90;;;;;;4997962;28;20137;-60
2023/07/21 02:17:11;;;;;;;6.07;3.70;;;13.30;99.90;;;;;;4991347;28;20513;-59
2023/07/21 02:19:36;;;;;;;7.57;3.92;;;13.30;99.90;;;;;;4983673;28;20100;-58
2023/07/21 02:22:02;;;;;;;7.32;4.05;;;13.20;99.90;;;;;;4984986;28;20497;-58
2023/07/21 02:24:28;;;;;;;6.55;4.03;;;13.20;99.90;;;;;;4985895;28;20121;-56
2023/07/21 02:26:54;;;;;;;6.05;4.07;;;13.10;99.90;;;;;;4992796;28;20046;-57
2023/07/21 02:29:20;;;;;;;6.63;3.85;;;13.00;99.90;;;;;;5004894;28;20038;-56
2023/07/21 02:31:48;;;;;;;7.13;3.78;;;12.90;99.90;;;;;;5005109;28;20038;-60
2023/07/21 02:34:14;;;;;;;10.73;3.70;;;12.90;99.90;;;;;;5003788;28;20038;-57
2023/07/21 02:36:40;;;;;;;6.20;3.70;;;12.80;99.90;;;;;;5004927;28;20062;-57
2023/07/21 02:39:05;;;;;;;5.05;3.30;;;12.80;99.90;;;;;;5003910;28;20046;-58
2023/07/21 02:41:31;;;;;;;4.60;3.72;;;12.70;99.90;;;;;;5004013;28;20113;-58
2023/07/21 02:43:56;;;;;;;5.53;3.83;;;12.70;99.90;;;;;;5004114;28;20049;-56
2023/07/21 02:46:22;;;;;;;6.28;3.72;;;12.90;99.90;;;;;;5004598;28;20048;-57
2023/07/21 02:48:47;;;;;;;5.63;4.10;;;12.60;99.90;;;;;;5004117;28;20061;-56
2023/07/21 02:51:13;;;;;;;7.13;4.28;;;12.50;99.90;;;;;;5003857;28;20046;-59
2023/07/21 02:53:39;;;;;;;7.68;4.68;;;12.60;99.90;;;;;;5004964;28;20045;-57
2023/07/21 02:56:05;;;;;;;8.45;4.20;;;12.50;99.90;;;;;;5003982;28;20070;-56
2023/07/21 02:58:32;;;;;;;6.50;4.18;;;12.40;99.90;;;;;;5004246;28;20061;-57
2023/07/21 03:00:58;;;;;;;7.35;4.30;;;12.40;99.90;;;;;;5004507;28;20050;-56
2023/07/21 03:03:25;;;;;;;8.75;5.00;;;12.40;99.90;;;;;;5003456;28;20507;-58
2023/07/21 03:05:52;;;;;;;7.40;4.47;;;12.40;99.90;;;;;;5004357;28;20068;-59
2023/07/21 03:08:26;;;;;;;7.72;5.20;;;12.30;99.90;;;;;;5003631;28;20045;-57
2023/07/21 03:10:55;;;;;;;8.88;4.88;;;12.40;99.90;;;;;;5004293;28;20540;-59
2023/07/21 03:13:22;;;;;;;6.43;4.90;;;12.40;99.90;;;;;;5003370;28;20046;-57
2023/07/21 03:15:48;;;;;;;6.50;4.68;;;12.40;99.90;;;;;;4995880;28;20168;-57
2023/07/21 03:18:13;;;;;;;5.95;4.72;;;12.40;99.90;;;;;;4984093;28;20129;-58
2023/07/21 03:20:39;;;;;;;6.93;4.75;;;12.40;99.90;;;;;;4984568;28;20042;-59
2023/07/21 03:23:07;;;;;;;7.75;4.97;;;12.40;99.90;;;;;;4983690;28;20642;-58
2023/07/21 03:25:34;;;;;;;6.72;4.75;;;12.40;99.90;;;;;;4984494;28;20049;-59
2023/07/21 03:27:59;;;;;;;6.60;5.07;;;12.30;99.90;;;;;;4984448;28;20045;-60
2023/07/21 03:30:25;;;;;;;6.60;5.13;;;12.30;99.90;;;;;;4983685;28;20121;-58
2023/07/21 03:32:51;;;;;;;6.88;5.22;;;12.50;99.90;;;;;;4999234;28;20050;-59
2023/07/21 03:35:16;;;;;;;5.78;5.10;;;12.40;99.90;;;;;;4982759;28;20082;-57
2023/07/21 03:37:42;;;;;;;6.55;5.20;;;12.20;99.90;;;;;;4983664;28;20557;-57
2023/07/21 03:40:09;;;;;;;7.05;5.38;;;12.20;99.90;;;;;;4983638;28;20042;-57
2023/07/21 03:42:35;;;;;;;7.97;5.93;;;12.20;99.90;;;;;;4983880;28;20078;-59
2023/07/21 03:45:04;;;;;;;7.45;5.57;;;12.30;99.90;;;;;;4984430;28;20046;-58
2023/07/21 03:47:34;;;;;;;7.20;6.50;;;12.10;99.90;;;;;;4983657;28;20084;-59
2023/07/21 03:50:00;;;;;;;8.70;6.88;;;12.10;99.90;;;;;;4983559;28;20405;-56
2023/07/21 03:52:29;;;;;;;7.60;6.38;;;12.00;99.90;;;;;;4984151;28;20047;-60
2023/07/21 03:54:55;;;;;;;8.65;6.32;;;12.00;99.90;;;;;;4983839;28;20045;-57
2023/07/21 03:57:21;;;;;;;9.18;6.88;;;12.00;99.90;;;;;;4983884;28;20060;-59
2023/07/21 03:59:48;;;;;;;9.07;6.78;;;11.90;99.90;;;;;;4983624;28;20126;-60
2023/07/21 04:02:16;;;;;;;9.60;6.38;;;12.00;99.90;;;;;;4982320;28;20046;-59
2023/07/21 04:04:42;;;;;;;8.95;6.93;;;12.00;99.90;;;;;;4982283;28;20046;-58
2023/07/21 04:07:08;;;;;;;10.88;7.93;;;12.00;99.90;;;;;;4982247;28;20061;-57
2023/07/21 04:09:34;;;;;;;7.95;6.95;;;12.00;99.90;;;;;;4983710;28;20425;-59
2023/07/21 04:12:00;;;;;;;9.80;7.03;;;12.00;99.90;;;;;;4983232;28;20450;-58
2023/07/21 04:14:26;;;;;;;9.63;7.35;;;12.00;99.90;;;;;;4998558;28;20405;-57
2023/07/21 04:16:53;;;;;;;14.85;7.97;;;12.10;99.90;;;;;;4992120;28;20054;-58
2023/07/21 04:19:19;;;;;;;10.80;7.57;;;12.10;99.90;;;;;;4981736;28;20046;-57
2023/07/21 04:21:45;;;;;;;9.55;7.30;;;12.20;99.90;;;;;;4984063;28;20056;-59
2023/07/21 04:24:10;;;;;;;12.40;7.47;;;12.30;99.90;;;;;;4983823;28;20174;-57
2023/07/21 04:26:37;;;;;;;12.30;8.10;;;12.30;99.90;;;;;;4983091;28;20524;-58
2023/07/21 04:29:02;;;;;;;10.13;8.32;;;12.30;99.90;;;;;;4984089;28;20601;-58
2023/07/21 04:31:28;;;;;;;10.52;8.38;;;12.40;99.90;;;;;;4983583;28;20150;-59
2023/07/21 04:33:58;;;;;;;10.60;8.25;;;12.50;99.90;;;;;;4998029;28;20101;-57
2023/07/21 04:36:24;;;;;;;11.05;8.52;;;12.50;99.90;;;;;;4983193;28;20050;-57
2023/07/21 04:38:49;;;;;;;9.30;7.93;;;12.50;99.90;;;;;;4984897;28;20108;-57
2023/07/21 04:41:16;;;;;;;10.68;8.52;;;12.60;99.90;;;;;;4987042;28;20056;-57
2023/07/21 04:43:43;;;;;;;11.32;8.45;;;12.60;99.90;;;;;;4986558;28;20460;-58
2023/07/21 04:46:10;;;;;;;9.85;8.68;;;12.60;99.90;;;;;;4986094;28;20130;-56
2023/07/21 04:48:36;;;;;;;9.90;7.95;;;12.70;99.90;;;;;;4985980;28;20058;-59
2023/07/21 04:51:03;;;;;;;10.07;8.32;;;12.70;99.90;;;;;;4986735;28;20042;-58
2023/07/21 04:53:30;;;;;;;10.55;7.88;;;12.90;99.90;;;;;;4987803;28;20105;-57
2023/07/21 04:55:59;;;;;;;12.30;7.97;;;13.90;99.90;;;;;;4987468;28;20073;-59
2023/07/21 04:58:25;;;;;;;9.98;7.35;;;13.50;99.90;;;;;;4986746;28;20050;-59
2023/07/21 05:00:51;;;;;;;7.93;6.82;;;14.00;99.90;;;;;;4986762;28;20049;-58
2023/07/21 05:03:17;;;;;;;9.60;6.53;;;14.50;99.90;;;;;;4986614;28;20503;-59
2023/07/21 05:05:45;;;;;;;9.77;6.22;;;14.90;99.90;;;;;;4986700;28;20073;-57
2023/07/21 05:08:10;;;;;;;7.00;5.63;;;15.20;99.90;;;;;;4986275;28;20043;-58
2023/07/21 05:10:36;;;;;;;12.00;6.25;;;15.30;99.90;;;;;;4987298;28;20374;-57
2023/07/21 05:13:05;;;;;;;6.28;5.38;;;15.40;99.90;;;;;;4986409;28;20042;-57
2023/07/21 05:15:36;;;;;;;9.85;5.07;;;15.30;99.90;;;;;;4997018;28;20042;-58
2023/07/21 05:18:02;;;;;;;8.68;5.15;;;15.30;99.90;;;;;;4986166;28;20058;-57
2023/07/21 05:20:28;;;;;;;7.30;4.75;;;15.30;99.90;;;;;;4986534;28;20125;-59
2023/07/21 05:22:54;;;;;;;8.05;5.28;;;15.40;99.90;;;;;;4986241;28;20138;-57
2023/07/21 05:25:19;;;;;;;6.13;4.57;;;15.50;99.90;;;;;;4986881;28;20050;-57
2023/07/21 05:27:49;;;;;;;9.65;4.68;;;15.90;99.90;;;;;;4986708;28;20088;-57
2023/07/21 05:30:15;;;;;;;5.63;4.32;;;16.00;99.90;;;;;;4985819;28;20061;-61
2023/07/21 05:32:41;;;;;;;5.05;3.70;;;16.10;99.90;;;;;;4986445;28;20429;-58
2023/07/21 05:35:10;;;;;;;7.03;4.47;;;16.20;99.90;;;;;;4984144;28;20050;-58
2023/07/21 05:37:36;;;;;;;7.45;3.78;;;16.50;99.90;;;;;;4986058;28;20528;-59
2023/07/21 05:40:03;;;;;;;6.45;3.50;;;16.60;99.90;;;;;;4985979;28;20043;-59
2023/07/21 05:42:29;;;;;;;5.10;3.65;;;16.80;99.90;;;;;;4986204;28;20421;-58
2023/07/21 05:44:55;;;;;;;5.80;3.25;;;17.20;99.90;;;;;;4986341;28;20046;-58
2023/07/21 05:47:21;;;;;;;6.85;3.50;;;17.30;99.90;;;;;;4985738;28;20065;-59
2023/07/21 05:49:46;;;;;;;8.52;3.22;;;17.40;99.90;;;;;;4985186;28;20634;-58
2023/07/21 05:52:12;;;;;;;10.93;3.00;;;17.80;99.90;;;;;;4985963;28;20050;-59
2023/07/21 05:54:39;;;;;;;7.68;3.55;;;18.30;99.90;;;;;;4985130;28;20046;-59
2023/07/21 05:57:06;;;;;;;6.15;3.15;;;18.60;99.90;;;;;;4986232;28;20096;-59
2023/07/21 05:59:32;;;;;;;5.60;2.78;;;19.00;99.90;;;;;;4985812;28;20077;-59
2023/07/21 06:02:01;;;;;;;8.63;2.47;;;19.30;99.90;;;;;;4985901;28;20047;-60
2023/07/21 06:04:27;;;;;;;3.60;2.20;;;19.40;99.90;;;;;;4983973;28;20054;-59
2023/07/21 06:06:55;;;;;;;5.00;2.45;;;19.20;99.90;;;;;;4985298;28;20100;-59
2023/07/21 06:09:20;;;;;;;6.80;2.80;;;18.90;99.90;;;;;;4985115;28;20045;-59
2023/07/21 06:11:47;;;;;;;7.65;2.80;;;18.70;99.90;;;;;;4985035;28;20683;-59
2023/07/21 06:14:13;;;;;;;6.30;2.20;;;18.60;99.90;;;;;;4988297;28;20109;-59
2023/07/21 06:16:38;;;;;;;4.05;1.98;;;18.60;99.90;;;;;;4993170;28;20042;-58
2023/07/21 06:19:04;;;;;;;6.30;2.50;;;19.00;99.90;;;;;;4984486;28;20050;-60
2023/07/21 06:21:30;;;;;;;4.63;2.50;;;19.30;99.90;;;;;;4985876;28;20058;-58
2023/07/21 06:23:55;;;;;;;5.00;2.35;;;19.40;99.90;;;;;;4985773;28;20462;-60
2023/07/21 06:26:21;;;;;;;4.47;2.22;;;19.60;99.90;;;;;;5000315;28;20065;-58
2023/07/21 06:28:46;;;;;;;4.57;2.15;;;20.10;99.90;;;;;;4985017;28;20046;-59
2023/07/21 06:31:13;;;;;;;7.68;2.42;;;20.70;99.40;;;;;;4985602;28;20078;-60
2023/07/21 06:33:38;;;;;;;6.38;2.47;;;21.10;98.20;;;;;;4987720;28;20441;-60
2023/07/21 06:36:05;;;;;;;4.90;2.30;;;21.20;97.60;;;;;;4995460;28;20034;-60
2023/07/21 06:38:31;;;;;;;4.90;2.03;;;21.20;96.90;;;;;;4985089;28;20046;-60
2023/07/21 06:40:57;;;;;;;5.32;2.50;;;21.40;96.70;;;;;;4985492;28;20138;-59
2023/07/21 06:43:22;;;;;;;7.32;2.15;;;21.40;96.20;;;;;;4985216;28;20054;-59
2023/07/21 06:45:49;;;;;;;5.72;1.80;;;21.70;96.20;;;;;;4984807;28;20038;-59
2023/07/21 06:48:14;;;;;;;4.65;1.50;;;21.80;95.30;;;;;;4984441;28;20418;-60
2023/07/21 06:50:40;;;;;;;4.78;1.67;;;21.90;94.90;;;;;;4984101;28;20057;-60
2023/07/21 06:53:06;;;;;;;4.18;1.80;;;21.90;94.60;;;;;;4984688;28;20390;-59
2023/07/21 06:55:33;;;;;;;3.78;1.70;;;22.00;94.40;;;;;;4992524;28;20069;-59
2023/07/21 06:57:58;;;;;;;2.78;1.45;;;22.00;94.30;;;;;;4985073;28;20054;-59
2023/07/21 07:00:24;;;;;;;6.05;1.90;;;22.20;94.60;;;;;;4997795;28;20034;-60
2023/07/21 07:02:50;;;;;;;6.32;1.90;;;22.40;94.20;;;;;;4990557;28;20077;-58
2023/07/21 07:05:16;;;;;;;4.95;1.40;;;22.60;94.20;;;;;;4999673;28;20054;-60
2023/07/21 07:07:42;;;;;;;3.20;1.30;;;22.50;93.90;;;;;;5004547;28;20064;-58
2023/07/21 07:10:09;;;;;;;3.50;1.20;;;22.40;94.00;;;;;;5003306;28;20038;-59
2023/07/21 07:12:34;;;;;;;3.88;1.40;;;22.30;94.10;;;;;;5003719;28;20037;-58
2023/07/21 07:15:00;;;;;;;3.28;1.25;;;22.20;94.50;;;;;;4996575;28;20069;-58
2023/07/21 07:17:26;;;;;;;2.40;1.30;;;22.50;94.30;;;;;;4998309;28;20042;-59
2023/07/21 07:19:51;;;;;;;2.10;1.40;;;22.80;93.80;;;;;;5003906;28;20046;-59
2023/07/21 07:22:17;;;;;;;5.05;1.65;;;22.60;93.90;;;;;;5004303;28;20049;-60
2023/07/21 07:24:43;;;;;;;4.32;1.48;;;22.40;94.20;;;;;;5003698;28;20099;-59
2023/07/21 07:27:09;;;;;;;3.10;1.50;;;22.20;93.80;;;;;;4990052;28;20137;-59
2023/07/21 07:29:35;;;;;;;4.15;1.80;;;22.20;93.80;;;;;;4988682;28;20409;-59
2023/07/21 07:32:01;;;;;;;3.75;1.50;;;21.80;94.20;;;;;;4988354;28;20042;-62
2023/07/21 07:34:26;;;;;;;3.53;1.73;;;21.70;94.30;;;;;;4987072;28;20500;-59
2023/07/21 07:36:52;;;;;;;3.13;1.63;;;21.60;94.10;;;;;;4988721;28;20779;-60
2023/07/21 07:39:18;;;;;;;4.55;1.50;;;21.70;94.00;;;;;;4988269;28;20064;-59
2023/07/21 07:41:45;;;;;;;1.88;1.30;;;21.40;94.00;;;;;;4985210;28;20524;-61
2023/07/21 07:44:11;;;;;;;3.35;1.70;;;21.20;94.30;;;;;;4988320;28;20034;-59
2023/07/21 07:46:37;;;;;;;2.33;1.30;;;21.30;94.40;;;;;;4988739;28;20480;-58
2023/07/21 07:49:03;;;;;;;3.08;1.38;;;21.50;94.40;;;;;;4987867;28;20042;-60
2023/07/21 07:51:29;;;;;;;2.80;1.20;;;21.70;94.30;;;;;;4986932;28;20125;-59
2023/07/21 07:53:55;;;;;;;3.92;1.45;;;21.70;94.00;;;;;;4986977;28;20073;-59
2023/07/21 07:56:24;;;;;;;4.35;1.40;;;21.50;93.80;;;;;;4987361;28;20081;-59
2023/07/21 07:58:49;;;;;;;2.60;1.52;;;21.20;93.70;;;;;;4986538;28;20065;-59
2023/07/21 08:01:15;;;;;;;3.10;1.77;;;21.30;93.90;;;;;;4988802;28;20069;-59
2023/07/21 08:03:43;;;;;;;4.18;2.00;;;21.50;94.10;;;;;;4986952;28;20054;-59
2023/07/21 08:06:10;;;;;;;3.85;2.00;;;21.60;93.90;;;;;;4988107;28;20117;-61
2023/07/21 08:08:36;;;;;;;2.72;1.20;;;21.60;93.80;;;;;;4986894;28;20071;-59
2023/07/21 08:11:03;;;;;;;2.83;1.00;;;21.60;94.00;;;;;;4988249;28;20045;-60
2023/07/21 08:13:28;;;;;;;1.80;0.98;;;21.40;93.00;;;;;;4989377;28;20092;-60
2023/07/21 08:15:54;;;;;;;2.75;1.00;;;21.30;93.40;;;;;;4990851;28;20042;-60
2023/07/21 08:18:19;;;;;;;3.45;1.00;;;21.50;93.50;;;;;;4991622;28;20042;-60
2023/07/21 08:20:45;;;;;;;1.73;1.02;;;21.20;93.80;;;;;;4991644;28;20045;-59
2023/07/21 08:23:11;;;;;;;3.05;1.10;;;21.00;94.00;;;;;;4990670;28;20050;-59
2023/07/21 08:25:36;;;;;;;3.60;1.20;;;21.00;93.60;;;;;;4991912;28;20061;-60
2023/07/21 08:28:03;;;;;;;2.55;0.98;;;21.10;93.80;;;;;;4992005;28;20042;-58
2023/07/21 08:30:30;;;;;;;2.28;1.10;;;21.20;93.40;;;;;;4991395;28;20141;-60
2023/07/21 08:32:58;;;;;;;2.05;1.10;;;21.10;93.00;;;;;;4990938;28;20049;-59
2023/07/21 08:35:24;;;;;;;1.10;0.85;;;20.80;93.10;;;;;;4990102;28;20045;-58
2023/07/21 08:37:50;;;;;;;2.83;0.75;;;20.60;93.30;;;;;;4991736;28;20072;-59
2023/07/21 08:40:16;;;;;;;2.83;0.80;;;20.60;93.40;;;;;;4991330;28;20053;-58
2023/07/21 08:42:42;;;;;;;2.40;1.00;;;20.60;93.00;;;;;;4991822;28;20052;-59
2023/07/21 08:45:08;;;;;;;2.80;1.02;;;20.70;93.30;;;;;;4992817;28;20038;-59
2023/07/21 08:47:34;;;;;;;2.15;1.00;;;21.00;93.60;;;;;;4990594;28;20143;-58
2023/07/21 08:50:04;;;;;;;2.53;1.30;;;21.40;93.20;;;;;;4991651;28;20042;-61
2023/07/21 08:52:33;;;;;;;4.63;1.65;;;21.70;92.50;;;;;;4992619;28;20129;-58
2023/07/21 08:55:00;;;;;;;5.38;1.77;;;21.60;92.40;;;;;;4991469;28;20064;-61
2023/07/21 08:57:27;;;;;;;2.80;1.30;;;21.40;92.00;;;;;;4991758;28;20054;-59
2023/07/21 08:59:55;;;;;;;3.63;1.17;;;21.10;92.20;;;;;;4992284;28;20043;-58
2023/07/21 09:02:38;;;;;;;2.60;1.48;;;20.90;92.40;;;;;;4990157;28;20842;-59
2023/07/21 09:05:04;;;;;;;2.03;1.27;;;20.90;92.60;;;;;;4992149;28;20049;-58
2023/07/21 09:07:30;;;;;;;2.72;1.52;;;20.90;92.70;;;;;;4991649;28;20030;-59
2023/07/21 09:09:56;;;;;;;2.35;1.27;;;21.00;92.70;;;;;;4991049;28;20045;-60
2023/07/21 09:12:21;;;;;;;1.85;1.05;;;21.00;92.50;;;;;;4991651;28;20523;-58
2023/07/21 09:14:47;;;;;;;1.60;0.80;;;21.10;92.10;;;;;;4992099;28;20077;-60
2023/07/21 09:17:13;;;;;;;4.13;1.15;;;21.20;91.70;;;;;;4990572;28;20074;-58
2023/07/21 09:19:44;;;;;;;1.63;0.90;;;21.30;91.00;;;;;;4991190;28;23083;-60
2023/07/21 09:22:11;;;;;;;2.35;1.15;;;21.30;91.50;;;;;;4992285;28;20148;-60
2023/07/21 09:24:51;;;;;;;2.70;1.33;;;21.40;91.00;;;;;;4990507;28;20077;-59
2023/07/21 09:27:19;;;;;;;2.28;1.10;;;21.60;91.20;;;;;;4990078;28;20038;-58
2023/07/21 09:29:45;;;;;;;1.95;0.90;;;21.50;91.20;;;;;;4991259;28;20065;-59
2023/07/21 09:32:18;;;;;;;3.30;1.25;;;21.50;91.80;;;;;;4989898;28;20050;-60
2023/07/21 09:34:58;;;;;;;1.77;0.80;;;21.70;91.90;;;;;;4991044;28;20042;-59
2023/07/21 09:37:26;;;;;;;1.88;1.00;;;21.80;91.90;;;;;;4990363;28;20081;-60
2023/07/21 09:39:54;;;;;;;2.97;1.17;;;22.00;91.60;;;;;;4990424;28;20034;-61
2023/07/21 09:42:23;;;;;;;2.40;1.00;;;22.40;91.50;;;;;;4991150;28;20046;-60
2023/07/21 09:44:49;;;;;;;4.88;1.38;;;22.70;91.00;;;;;;4991454;28;20065;-59
2023/07/21 09:47:16;;;;;;;4.10;1.13;;;22.50;90.10;;;;;;4990428;28;20100;-60
2023/07/21 09:49:43;;;;;;;2.38;1.10;;;22.30;90.90;;;;;;4991296;28;20113;-58
2023/07/21 09:52:13;;;;;;;2.70;0.90;;;22.30;91.00;;;;;;4991715;28;20038;-60
2023/07/21 09:54:41;;;;;;;1.20;0.77;;;22.30;90.30;;;;;;4991722;28;20038;-61
2023/07/21 09:57:09;;;;;;;1.48;0.98;;;22.50;90.20;;;;;;4992274;28;20048;-58
2023/07/21 09:59:39;;;;;;;2.20;0.75;;;22.70;88.80;;;;;;4990879;28;20049;-60
2023/07/21 10:02:07;;;;;;;3.10;0.90;;;22.70;88.20;;;;;;4989790;28;20064;-59
2023/07/21 10:04:34;;;;;;;3.75;1.30;;;22.60;88.20;;;;;;4991173;28;20054;-58
2023/07/21 10:07:03;;;;;;;2.65;1.10;;;22.40;89.40;;;;;;4990914;28;20085;-60
2023/07/21 10:09:32;;;;;;;3.47;1.20;;;22.20;89.40;;;;;;4990661;28;20077;-59
2023/07/21 10:12:12;;;;;;;2.00;1.00;;;22.10;90.10;;;;;;4989666;28;20543;-58
2023/07/21 10:14:39;;;;;;;1.77;0.80;;;22.10;90.00;;;;;;4988988;28;20137;-60
2023/07/21 10:17:08;;;;;;;2.72;1.10;;;22.10;90.20;;;;;;4988954;28;20042;-59
2023/07/21 10:19:45;;;;;;;1.95;0.88;;;22.30;90.40;;;;;;4989145;28;20250;-61
2023/07/21 10:22:24;;;;;;;1.75;0.90;;;22.60;90.20;;;;;;4990017;28;20424;-60
2023/07/21 10:24:54;;;;;;;5.40;1.15;;;22.90;88.00;;;;;;4990602;28;20146;-58
2023/07/21 10:27:23;;;;;;;2.90;1.20;;;23.00;88.70;;;;;;4989536;28;20038;-60
2023/07/21 10:29:53;;;;;;;1.90;1.00;;;23.30;89.10;;;;;;4990523;28;20039;-58
2023/07/21 10:32:22;;;;;;;4.60;1.08;;;23.60;88.40;;;;;;4988348;28;20671;-60
2023/07/21 10:34:51;;;;;;;1.73;0.93;;;23.50;86.80;;;;;;4989681;28;20053;-48
2023/07/21 10:37:17;;;;;;;1.77;1.10;;;23.40;86.90;;;;;;4989374;28;20097;-48
2023/07/21 10:39:52;;;;;;;1.27;0.90;;;23.00;87.60;;;;;;4988625;28;20708;-47
2023/07/21 10:42:18;;;;;;;2.35;1.00;;;23.00;87.80;;;;;;4989028;28;20121;-50
2023/07/21 10:44:46;;;;;;;2.17;0.85;;;22.90;88.50;;;;;;4989444;28;20176;-53
2023/07/21 10:47:13;;;;;;;3.92;1.52;;;23.00;88.00;;;;;;4988067;28;20034;-46
2023/07/21 10:49:39;;;;;;;2.33;1.02;;;23.20;86.40;;;;;;4989148;28;20050;-51
2023/07/21 10:52:05;;;;;;;2.15;0.90;;;23.00;86.80;;;;;;4986881;28;20049;-46
2023/07/21 10:54:31;;;;;;;2.65;1.38;;;22.80;87.90;;;;;;4989801;28;20050;-52
2023/07/21 10:56:59;;;;;;;2.30;1.13;;;22.60;88.50;;;;;;4989305;28;20041;-48
2023/07/21 10:59:25;;;;;;;1.60;0.90;;;22.80;88.40;;;;;;4988033;28;20413;-52
2023/07/21 11:01:56;;;;;;;2.40;1.05;;;23.00;88.30;;;;;;4988792;28;20046;-56
2023/07/21 11:04:23;;;;;;;1.80;1.10;;;23.00;87.80;;;;;;4988248;28;20116;-58
2023/07/21 11:06:57;;;;;;;2.67;1.00;;;22.90;87.70;;;;;;4988094;28;20061;-56
2023/07/21 11:09:23;;;;;;;1.95;1.10;;;22.70;88.00;;;;;;4986770;28;20111;-57
2023/07/21 11:11:52;;;;;;;1.60;0.90;;;22.50;88.70;;;;;;4986321;28;20077;-57
2023/07/21 11:14:26;;;;;;;1.90;1.10;;;22.40;87.70;;;;;;4986331;28;20050;-56
2023/07/21 11:16:55;;;;;;;1.73;1.02;;;22.10;87.70;;;;;;4989143;28;20034;-52
2023/07/21 11:19:22;;;;;;;2.30;1.10;;;21.90;87.60;;;;;;4987310;28;20112;-57
2023/07/21 11:21:48;;;;;;;3.03;1.10;;;21.80;88.10;;;;;;4990054;28;20046;-57
2023/07/21 11:24:25;;;;;;;2.30;1.17;;;21.80;88.40;;;;;;4988005;28;20042;-56
2023/07/21 11:26:54;;;;;;;4.75;1.30;;;21.70;89.40;;;;;;4987987;28;20493;-57
2023/07/21 11:29:20;;;;;;;1.95;0.90;;;21.80;90.20;;;;;;4988863;28;20042;-57
2023/07/21 11:31:46;;;;;;;3.00;1.10;;;21.80;90.10;;;;;;4987589;28;20062;-58
2023/07/21 11:34:23;;;;;;;2.55;1.05;;;21.90;90.00;;;;;;4988462;28;20034;-56
2023/07/21 11:36:58;;;;;;;2.72;1.25;;;22.00;89.20;;;;;;4989068;28;20045;-56
2023/07/21 11:39:27;;;;;;;2.25;1.10;;;21.90;88.80;;;;;;4989503;28;20057;-56
2023/07/21 11:41:56;;;;;;;1.65;0.85;;;21.90;87.10;;;;;;4988790;28;20479;-57
2023/07/21 11:44:23;;;;;;;2.88;1.35;;;21.90;86.90;;;;;;4988945;28;20178;-59
2023/07/21 11:46:59;;;;;;;3.20;1.30;;;22.00;86.60;;;;;;4987768;28;20042;-56
2023/07/21 11:49:28;;;;;;;4.15;1.30;;;21.90;87.00;;;;;;4987606;28;20053;-56
2023/07/21 11:51:54;;;;;;;2.75;1.38;;;22.00;86.70;;;;;;4996412;28;20034;-54
2023/07/21 11:54:25;;;;;;;3.28;1.20;;;22.10;87.40;;;;;;4988387;28;20290;-59
2023/07/21 11:56:53;;;;;;;2.20;1.10;;;22.20;88.10;;;;;;4988116;28;20089;-54
2023/07/21 11:59:19;;;;;;;2.45;1.27;;;22.50;89.00;;;;;;4988224;28;20437;-51
2023/07/21 12:01:46;;;;;;;3.92;1.30;;;22.70;88.90;;;;;;4987022;28;20471;-55
2023/07/21 12:04:12;;;;;;;2.78;1.20;;;22.70;88.70;;;;;;4988420;28;20043;-53
2023/07/21 12:06:38;;;;;;;2.80;1.27;;;22.70;86.10;;;;;;4987996;28;20413;-56
2023/07/21 12:09:05;;;;;;;2.10;1.40;;;22.70;87.30;;;;;;4988702;28;20046;-53
2023/07/21 12:11:33;;;;;;;3.15;1.30;;;22.80;88.50;;;;;;4987641;28;20064;-56
2023/07/21 12:13:58;;;;;;;2.92;1.17;;;22.80;87.20;;;;;;4987793;28;20043;-55
2023/07/21 12:16:24;;;;;;;2.22;1.40;;;22.60;88.60;;;;;;4986831;28;20053;-53
2023/07/21 12:18:49;;;;;;;3.22;1.42;;;22.40;88.60;;;;;;4985928;28;20449;-53
2023/07/21 12:21:17;;;;;;;2.00;1.15;;;22.40;88.00;;;;;;4987155;28;20034;-52
2023/07/21 12:23:46;;;;;;;3.47;1.40;;;22.50;86.60;;;;;;4987511;28;20058;-55
2023/07/21 12:26:12;;;;;;;2.28;1.27;;;22.40;88.00;;;;;;4988144;28;20057;-52
2023/07/21 12:28:38;;;;;;;2.85;1.25;;;22.40;89.20;;;;;;4986044;28;20038;-54
2023/07/21 12:31:04;;;;;;;2.30;1.13;;;22.60;88.90;;;;;;4986684;28;20116;-57
2023/07/21 12:33:31;;;;;;;1.88;1.20;;;22.70;88.40;;;;;;4987687;28;20050;-54
2023/07/21 12:35:56;;;;;;;3.10;1.48;;;22.80;87.00;;;;;;4987839;28;20037;-57
2023/07/21 12:38:22;;;;;;;3.03;1.40;;;22.60;85.80;;;;;;4987543;28;20046;-53
2023/07/21 12:40:47;;;;;;;2.50;1.40;;;22.40;86.40;;;;;;4988075;28;20530;-54
2023/07/21 12:43:13;;;;;;;3.25;1.55;;;22.30;87.60;;;;;;4986968;28;20115;-52
2023/07/21 12:45:39;;;;;;;3.33;1.50;;;22.10;87.60;;;;;;4986968;28;20072;-53